Time;durP1;ratioP1;P1;durP2;ratioP2;P2;SDS_P1;SDS_P2;PMS_P1;PMS_P2;Temp;Humidity;BMP_temperature;BMP_pressure;BME280_temperature;BME280_humidity;BME280_pressure;Samples;Min_cycle;Max_cycle;Signal;HPM_P1;HPM_P2
2023/02/20 00:01:37;;;;;;;6.50;3.10;;;;;;;1.65;67.07;100373.63;131304;1254;106524;-76
2023/02/20 00:04:43;;;;;;;7.50;3.40;;;;;;;1.67;66.96;100372.64;131214;1253;107621;-75
2023/02/20 00:07:49;;;;;;;7.20;3.00;;;;;;;1.68;67.01;100362.04;131234;1247;107428;-76
2023/02/20 00:10:54;;;;;;;7.80;3.20;;;;;;;1.69;66.62;100361.82;131233;1271;107527;-76
2023/02/20 00:14:00;;;;;;;7.20;3.20;;;;;;;1.68;66.63;100354.16;131301;1248;107502;-76
2023/02/20 00:17:05;;;;;;;9.70;3.70;;;;;;;1.67;66.84;100344.08;131236;1253;107385;-78
2023/02/20 00:20:13;;;;;;;8.30;3.50;;;;;;;1.68;66.95;100336.08;131224;1247;107500;-76
2023/02/20 00:23:19;;;;;;;7.20;3.40;;;;;;;1.69;66.52;100342.52;131417;1247;107572;-76
2023/02/20 00:26:25;;;;;;;8.20;3.10;;;;;;;1.66;66.34;100347.30;131207;1248;107482;-77
2023/02/20 00:29:30;;;;;;;9.50;3.40;;;;;;;1.60;66.46;100347.48;131271;1253;106355;-76
2023/02/20 00:32:36;;;;;;;8.00;2.80;;;;;;;1.63;66.51;100346.63;131213;1253;107495;-76
2023/02/20 00:35:41;;;;;;;8.30;3.70;;;;;;;1.66;66.49;100355.91;131223;1248;107438;-75
2023/02/20 00:38:47;;;;;;;7.70;3.50;;;;;;;1.67;66.30;100365.11;131243;1254;107234;-77
2023/02/20 00:41:54;;;;;;;7.70;3.00;;;;;;;1.67;66.13;100372.29;131263;1248;108078;-75
2023/02/20 00:45:00;;;;;;;7.20;3.00;;;;;;;1.66;66.14;100379.36;131293;1251;107530;-76
2023/02/20 00:48:07;;;;;;;6.80;2.90;;;;;;;1.69;66.37;100379.20;131259;1254;109239;-77
2023/02/20 00:51:12;;;;;;;6.70;3.00;;;;;;;1.68;66.14;100379.23;131241;1267;107523;-75
2023/02/20 00:54:18;;;;;;;6.50;2.70;;;;;;;1.69;66.31;100384.48;131210;1254;107503;-76
2023/02/20 00:57:23;;;;;;;5.80;2.90;;;;;;;1.68;66.46;100382.77;131174;1253;107182;-77
2023/02/20 01:00:31;;;;;;;7.20;3.00;;;;;;;1.69;66.52;100379.57;131252;1254;107648;-77
2023/02/20 01:03:36;;;;;;;8.20;2.90;;;;;;;1.70;66.39;100373.13;131199;1253;107247;-75
2023/02/20 01:06:42;;;;;;;8.00;2.90;;;;;;;1.70;66.40;100368.05;131138;1253;107527;-77
2023/02/20 01:09:50;;;;;;;8.30;3.30;;;;;;;1.70;66.45;100357.40;131183;1253;108557;-76
2023/02/20 01:12:56;;;;;;;6.90;3.10;;;;;;;1.72;66.41;100348.80;131356;1248;107548;-75
2023/02/20 01:16:01;;;;;;;7.20;2.90;;;;;;;1.71;66.59;100351.00;131372;1247;107375;-75
2023/02/20 01:19:07;;;;;;;6.00;2.70;;;;;;;1.70;66.58;100354.39;131201;1247;108552;-76
2023/02/20 01:22:13;;;;;;;8.80;3.20;;;;;;;1.71;66.51;100358.55;131220;1248;107506;-77
2023/02/20 01:25:18;;;;;;;8.80;3.20;;;;;;;1.71;66.76;100355.74;131291;1261;108706;-77
2023/02/20 01:28:24;;;;;;;7.70;2.90;;;;;;;1.73;66.64;100348.23;131246;1248;107254;-75
2023/02/20 01:31:30;;;;;;;7.70;3.40;;;;;;;1.77;66.64;100337.86;131217;1256;107205;-75
2023/02/20 01:34:35;;;;;;;8.10;3.00;;;;;;;1.79;66.60;100337.57;131367;1254;107489;-77
2023/02/20 01:37:41;;;;;;;13.20;7.30;;;;;;;1.79;66.52;100335.98;131424;1254;106773;-76
2023/02/20 01:40:49;;;;;;;8.00;3.50;;;;;;;1.79;66.47;100337.70;131334;1254;107398;-74
2023/02/20 01:43:55;;;;;;;5.70;2.80;;;;;;;1.80;66.57;100334.67;131158;1271;108632;-76
2023/02/20 01:47:01;;;;;;;7.20;2.70;;;;;;;1.84;66.58;100340.04;131340;1271;107226;-76
2023/02/20 01:50:09;;;;;;;6.90;2.80;;;;;;;1.83;66.33;100353.80;131279;1253;107520;-75
2023/02/20 01:53:18;;;;;;;5.00;2.40;;;;;;;1.80;66.35;100347.48;131235;1253;107065;-78
2023/02/20 01:56:24;;;;;;;7.70;2.40;;;;;;;1.80;66.26;100346.61;131210;1248;107460;-76
2023/02/20 01:59:34;;;;;;;5.10;2.60;;;;;;;1.80;66.00;100340.11;131257;1254;106932;-76
2023/02/20 02:02:45;;;;;;;5.90;2.00;;;;;;;1.83;66.01;100337.14;131361;1253;107381;-76
2023/02/20 02:05:57;;;;;;;4.70;2.00;;;;;;;1.84;65.85;100343.03;131405;1254;107431;-74
2023/02/20 02:09:10;;;;;;;4.80;2.00;;;;;;;1.83;65.92;100336.59;131433;1257;107925;-74
2023/02/20 02:12:16;;;;;;;4.60;1.70;;;;;;;1.85;66.16;100336.95;131202;1253;107579;-74
2023/02/20 02:15:24;;;;;;;7.90;2.20;;;;;;;1.87;66.06;100341.44;131415;1254;107506;-76
2023/02/20 02:18:50;;;;;;;4.50;2.10;;;;;;;1.87;65.77;100340.70;131289;1253;107360;-76
2023/02/20 02:22:35;;;;;;;5.10;1.90;;;;;;;1.90;65.86;100329.26;131215;1254;107452;-76
2023/02/20 02:25:52;;;;;;;5.90;1.70;;;;;;;1.94;65.64;100312.41;131259;1254;107498;-73
2023/02/20 02:29:19;;;;;;;6.40;1.70;;;;;;;1.95;65.63;100310.02;131404;1254;106368;-76
2023/02/20 02:32:51;;;;;;;3.10;1.50;;;;;;;1.98;65.60;100299.36;131254;1251;107556;-75
2023/02/20 02:36:26;;;;;;;3.00;1.70;;;;;;;2.01;65.64;100307.94;131381;1254;107434;-75
2023/02/20 02:39:43;;;;;;;4.00;1.80;;;;;;;2.04;65.44;100300.58;131372;1250;107356;-76
2023/02/20 02:42:58;;;;;;;3.90;1.80;;;;;;;2.04;65.76;100293.32;131086;1251;107591;-75
2023/02/20 02:46:09;;;;;;;5.20;2.00;;;;;;;2.07;65.72;100288.92;131300;1251;107367;-76
2023/02/20 02:49:24;;;;;;;5.10;1.70;;;;;;;2.08;65.57;100292.40;131246;1254;107516;-75
2023/02/20 02:52:47;;;;;;;4.10;1.50;;;;;;;2.09;65.57;100289.89;131386;1253;107518;-76
2023/02/20 02:55:53;;;;;;;4.60;1.70;;;;;;;2.09;65.75;100294.95;131075;1272;107216;-75
2023/02/20 02:58:58;;;;;;;4.30;1.60;;;;;;;2.09;65.93;100290.56;131288;1251;107887;-77
2023/02/20 03:02:10;;;;;;;5.50;1.90;;;;;;;2.10;66.07;100287.88;131262;1261;108639;-76
2023/02/20 03:05:20;;;;;;;4.40;2.00;;;;;;;2.11;66.24;100282.55;131195;1254;107524;-77
2023/02/20 03:08:32;;;;;;;3.70;2.00;;;;;;;2.12;66.18;100282.48;131291;1254;107624;-75
2023/02/20 03:11:39;;;;;;;6.30;1.90;;;;;;;2.14;66.17;100275.68;131391;1262;108085;-75
2023/02/20 03:18:25;;;;;;;4.30;1.90;;;;;;;2.19;66.29;100276.96;131454;1248;107476;-75
2023/02/20 03:21:34;;;;;;;6.10;1.90;;;;;;;2.19;66.39;100274.14;131417;1254;106456;-74
2023/02/20 03:24:54;;;;;;;5.30;1.70;;;;;;;2.19;66.32;100279.79;131400;1267;108674;-76
2023/02/20 03:28:06;;;;;;;4.90;1.90;;;;;;;2.18;66.40;100275.94;131310;1261;107466;-75
2023/02/20 03:31:19;;;;;;;6.10;2.00;;;;;;;2.18;66.71;100277.55;131454;1261;107513;-76
2023/02/20 03:44:44;;;;;;;5.00;2.20;;;;;;;2.21;66.94;100272.08;131487;1252;107493;-77
2023/02/20 03:47:53;;;;;;;7.10;2.70;;;;;;;2.22;66.90;100268.46;131403;1254;107489;-77
2023/02/20 03:54:39;;;;;;;11.70;5.90;;;;;;;2.23;66.94;100271.77;131387;1248;107478;-78
2023/02/20 03:57:50;;;;;;;14.40;6.70;;;;;;;2.22;67.06;100277.97;131481;1261;107626;-74
2023/02/20 04:01:00;;;;;;;8.70;4.30;;;;;;;2.20;67.12;100274.30;131220;1254;107472;-74
2023/02/20 04:04:10;;;;;;;8.30;4.00;;;;;;;2.18;67.13;100277.55;131252;1253;107523;-74
2023/02/20 04:07:21;;;;;;;36.70;21.80;;;;;;;2.15;67.18;100274.05;131480;1257;107403;-73
2023/02/20 04:10:30;;;;;;;113.20;45.60;;;;;;;2.12;67.34;100270.19;131361;1253;107508;-74
2023/02/20 04:13:37;;;;;;;20.70;11.10;;;;;;;2.11;67.31;100269.02;131596;1248;107882;-75
2023/02/20 04:16:49;;;;;;;15.00;6.00;;;;;;;2.13;67.23;100267.13;131206;1253;107578;-75
2023/02/20 04:19:55;;;;;;;41.70;18.30;;;;;;;2.20;67.39;100258.65;131459;1267;107299;-73
2023/02/20 04:23:07;;;;;;;131.00;51.90;;;;;;;2.26;67.40;100250.19;131434;1254;107456;-74
2023/02/20 04:26:17;;;;;;;177.10;71.90;;;;;;;2.32;67.27;100232.58;131351;1253;108691;-74
2023/02/20 04:29:24;;;;;;;96.20;40.60;;;;;;;2.35;67.46;100231.48;131339;1253;108673;-73
2023/02/20 04:32:31;;;;;;;185.00;82.40;;;;;;;2.36;67.48;100225.98;131194;1264;107515;-74
2023/02/20 04:35:37;;;;;;;174.60;78.80;;;;;;;2.34;67.41;100225.23;131213;1269;107537;-74
2023/02/20 04:38:42;;;;;;;74.20;31.70;;;;;;;2.34;67.50;100227.52;131174;1254;107401;-74
2023/02/20 04:41:57;;;;;;;82.00;34.00;;;;;;;2.34;67.49;100233.27;131322;1262;107507;-75
2023/02/20 04:45:03;;;;;;;72.40;30.70;;;;;;;2.31;67.62;100230.34;131226;1253;107251;-74
2023/02/20 04:48:10;;;;;;;116.40;49.60;;;;;;;2.24;67.68;100224.71;131363;1253;107511;-73
2023/02/20 04:51:16;;;;;;;291.00;118.90;;;;;;;2.20;67.82;100221.77;131213;1255;106746;-73
2023/02/20 04:54:22;;;;;;;157.10;65.50;;;;;;;2.19;67.77;100218.34;131236;1253;107346;-74
2023/02/20 04:57:28;;;;;;;118.70;46.60;;;;;;;2.18;67.90;100212.45;131311;1255;107468;-74
2023/02/20 05:00:34;;;;;;;194.40;79.10;;;;;;;2.16;67.88;100209.77;131238;1248;107507;-73
2023/02/20 05:03:39;;;;;;;150.70;60.60;;;;;;;2.15;68.07;100206.50;131258;1253;107264;-73
2023/02/20 05:06:47;;;;;;;120.50;49.90;;;;;;;2.12;68.12;100201.55;131388;1248;107562;-74
2023/02/20 05:09:53;;;;;;;165.70;73.10;;;;;;;2.11;68.06;100201.84;131435;1248;107412;-75
2023/02/20 05:12:59;;;;;;;68.10;28.00;;;;;;;2.09;68.21;100205.10;131256;1253;105730;-74
2023/02/20 05:16:05;;;;;;;106.90;47.60;;;;;;;2.07;68.39;100202.08;131253;1248;108686;-74
2023/02/20 05:19:11;;;;;;;84.70;41.80;;;;;;;2.06;68.43;100197.41;131250;1261;107520;-74
2023/02/20 05:22:20;;;;;;;65.70;31.60;;;;;;;2.06;68.66;100189.16;131201;1248;107429;-74
2023/02/20 05:25:25;;;;;;;96.30;42.70;;;;;;;2.05;68.58;100180.98;131206;1248;109380;-75
2023/02/20 05:28:31;;;;;;;109.90;41.70;;;;;;;2.06;68.63;100172.67;131206;1254;107244;-73
2023/02/20 05:31:36;;;;;;;166.50;61.10;;;;;;;2.08;68.67;100169.72;131243;1263;107239;-73
2023/02/20 05:34:42;;;;;;;55.40;23.20;;;;;;;2.16;68.79;100169.02;131236;1248;107565;-73
2023/02/20 05:37:48;;;;;;;46.50;21.40;;;;;;;2.24;68.66;100166.25;131196;1254;106699;-74
2023/02/20 05:40:54;;;;;;;58.20;27.20;;;;;;;2.29;68.75;100166.78;131232;1253;107556;-73
2023/02/20 05:43:59;;;;;;;73.20;29.10;;;;;;;2.31;68.75;100162.60;131220;1248;107376;-74
2023/02/20 05:47:06;;;;;;;48.10;19.40;;;;;;;2.31;68.91;100160.48;131241;1248;107361;-74
2023/02/20 05:50:12;;;;;;;46.00;22.10;;;;;;;2.32;69.12;100162.55;131255;1253;107557;-73
2023/02/20 05:53:17;;;;;;;43.10;19.80;;;;;;;2.33;69.12;100164.73;131219;1254;107504;-74
2023/02/20 05:56:23;;;;;;;78.70;40.80;;;;;;;2.35;68.99;100166.15;131243;1248;107423;-74
2023/02/20 05:59:29;;;;;;;33.90;17.10;;;;;;;2.37;69.13;100164.34;131220;1253;107491;-73
2023/02/20 06:02:35;;;;;;;19.80;11.30;;;;;;;2.38;69.22;100156.52;131316;1254;108035;-73
2023/02/20 06:05:40;;;;;;;13.80;7.00;;;;;;;2.41;69.29;100150.73;131303;1265;107386;-73
2023/02/20 06:08:47;;;;;;;14.20;8.10;;;;;;;2.43;69.38;100146.04;131269;1248;107551;-73
2023/02/20 06:11:54;;;;;;;9.90;5.40;;;;;;;2.43;69.62;100148.80;131198;1253;107391;-71
2023/02/20 06:15:00;;;;;;;12.10;6.40;;;;;;;2.45;69.41;100146.97;131204;1253;107527;-74
2023/02/20 06:18:05;;;;;;;14.70;8.10;;;;;;;2.47;69.54;100141.90;131128;1248;106420;-73
2023/02/20 06:21:12;;;;;;;44.70;22.10;;;;;;;2.51;69.63;100128.25;131229;1253;107529;-73
2023/02/20 06:24:17;;;;;;;84.20;43.00;;;;;;;2.60;69.72;100131.69;131255;1253;107627;-74
2023/02/20 06:27:23;;;;;;;20.70;11.10;;;;;;;2.73;69.70;100128.33;131246;1248;107489;-74
2023/02/20 06:30:28;;;;;;;14.70;8.50;;;;;;;2.85;69.61;100121.71;131260;1261;107466;-73
2023/02/20 06:33:34;;;;;;;9.80;4.50;;;;;;;2.94;69.56;100109.87;131264;1254;107276;-74
2023/02/20 06:36:41;;;;;;;28.60;21.70;;;;;;;3.01;69.68;100111.80;131222;1248;107643;-74
2023/02/20 06:39:48;;;;;;;29.40;21.00;;;;;;;3.08;69.69;100112.73;131261;1248;107336;-73
2023/02/20 06:42:53;;;;;;;13.70;8.70;;;;;;;3.15;69.72;100102.70;131304;1252;105732;-73
2023/02/20 06:45:59;;;;;;;14.40;10.10;;;;;;;3.23;69.68;100103.43;131371;1252;106643;-74
2023/02/20 06:49:05;;;;;;;18.00;11.60;;;;;;;3.29;69.60;100107.21;131297;1271;107612;-74
2023/02/20 06:52:10;;;;;;;54.40;34.10;;;;;;;3.34;69.67;100105.21;131354;1248;107370;-73
2023/02/20 06:55:16;;;;;;;53.30;29.50;;;;;;;3.35;69.59;100106.26;131230;1263;107500;-73
2023/02/20 06:58:22;;;;;;;35.90;19.00;;;;;;;3.38;69.63;100102.35;131254;1248;107499;-75
2023/02/20 07:01:29;;;;;;;41.10;22.10;;;;;;;3.43;69.62;100089.80;131231;1252;107502;-74
2023/02/20 07:04:35;;;;;;;25.40;13.00;;;;;;;3.48;69.71;100085.77;131273;1266;107236;-74
2023/02/20 07:07:40;;;;;;;44.80;24.10;;;;;;;3.51;69.63;100089.73;131369;1248;107595;-72
2023/02/20 07:10:46;;;;;;;44.70;21.90;;;;;;;3.53;69.78;100087.84;131407;1254;107324;-73
2023/02/20 07:13:52;;;;;;;42.00;21.20;;;;;;;3.57;69.63;100075.13;131305;1254;105648;-74
2023/02/20 07:16:57;;;;;;;29.70;15.90;;;;;;;3.61;69.85;100075.15;131357;1271;107644;-72
2023/02/20 07:20:04;;;;;;;60.60;31.40;;;;;;;3.67;69.79;100072.80;131446;1248;107468;-72
2023/02/20 07:23:10;;;;;;;49.60;23.70;;;;;;;3.69;69.86;100071.00;131523;1251;107356;-73
2023/02/20 07:26:21;;;;;;;31.70;15.10;;;;;;;3.77;69.93;100071.15;131505;1251;108287;-70
2023/02/20 07:29:26;;;;;;;44.00;18.10;;;;;;;3.88;69.74;100079.64;131495;1261;105811;-73
2023/02/20 07:32:32;;;;;;;421.80;153.70;;;;;;;4.02;69.69;100074.61;131288;1248;203029;-71
2023/02/20 07:35:38;;;;;;;147.60;67.40;;;;;;;4.17;69.47;100060.23;131397;1253;108668;-73
2023/02/20 07:38:55;;;;;;;64.40;27.00;;;;;;;4.34;69.50;100050.33;131230;1254;107545;-72
2023/02/20 07:42:00;;;;;;;230.80;96.60;;;;;;;4.48;69.58;100049.79;131200;1263;107516;-73
2023/02/20 07:45:28;;;;;;;222.30;93.80;;;;;;;4.61;69.10;100040.69;131313;1248;107443;-72
2023/02/20 07:48:35;;;;;;;76.10;33.10;;;;;;;4.66;69.27;100035.52;131181;1253;107536;-72
2023/02/20 07:51:41;;;;;;;28.40;12.10;;;;;;;4.67;68.99;100031.67;131254;1256;107212;-73
2023/02/20 07:54:46;;;;;;;21.70;9.20;;;;;;;4.67;69.04;100032.39;131456;1261;107221;-72
2023/02/20 07:57:56;;;;;;;19.90;7.20;;;;;;;4.62;69.33;100022.98;131483;1251;108697;-73
2023/02/20 08:01:02;;;;;;;18.10;9.40;;;;;;;4.61;69.73;100020.39;131316;1248;108517;-72
2023/02/20 08:04:08;;;;;;;13.10;6.00;;;;;;;4.66;69.59;100013.16;131415;1260;107352;-75
2023/02/20 08:07:14;;;;;;;11.90;6.00;;;;;;;4.61;69.65;100006.14;131391;1254;106637;-71
2023/02/20 08:10:23;;;;;;;9.60;5.00;;;;;;;4.61;70.16;99994.13;131410;1254;107478;-73
2023/02/20 08:13:29;;;;;;;14.60;6.00;;;;;;;4.61;69.76;99993.40;131335;1261;107631;-73
2023/02/20 08:16:34;;;;;;;15.10;6.60;;;;;;;4.63;70.12;99998.08;131390;1252;107219;-73
2023/02/20 08:19:40;;;;;;;23.40;10.30;;;;;;;4.62;70.28;99994.39;131252;1261;107241;-74
2023/02/20 08:22:47;;;;;;;22.30;12.90;;;;;;;4.64;70.08;99982.31;131284;1248;107520;-73
2023/02/20 08:25:53;;;;;;;17.30;10.80;;;;;;;4.65;70.21;99974.08;131230;1261;105874;-73
2023/02/20 08:28:59;;;;;;;39.90;22.70;;;;;;;4.68;70.13;99965.05;131155;1254;108611;-73
2023/02/20 08:32:04;;;;;;;20.70;9.50;;;;;;;4.78;70.45;99955.95;131195;1248;107354;-72
2023/02/20 08:35:10;;;;;;;35.60;20.00;;;;;;;4.88;70.45;99946.36;131287;1248;107527;-72
2023/02/20 08:38:27;;;;;;;10.90;5.60;;;;;;;4.99;70.51;99946.75;131188;1254;107443;-73
2023/02/20 08:41:32;;;;;;;13.50;5.20;;;;;;;5.07;70.35;99935.86;131242;1248;107563;-74
2023/02/20 08:44:40;;;;;;;15.80;5.40;;;;;;;5.10;70.16;99943.83;131329;1253;107374;-72
2023/02/20 08:47:47;;;;;;;10.40;4.70;;;;;;;5.11;70.28;99934.42;131235;1254;108614;-72
2023/02/20 08:50:53;;;;;;;8.90;4.40;;;;;;;5.10;70.58;99931.52;131196;1248;107395;-71
2023/02/20 08:53:59;;;;;;;103.20;49.40;;;;;;;5.05;70.61;99930.55;131383;1254;107356;-71
2023/02/20 08:57:04;;;;;;;117.90;54.40;;;;;;;4.96;70.67;99930.23;131410;1254;107485;-71
2023/02/20 09:00:16;;;;;;;259.00;113.10;;;;;;;4.89;71.11;99921.45;131279;1253;107446;-73
2023/02/20 09:03:22;;;;;;;179.00;73.10;;;;;;;4.83;71.10;99913.06;131250;1253;107492;-75
2023/02/20 09:06:28;;;;;;;128.10;57.40;;;;;;;4.79;71.49;99909.41;131232;1254;107716;-74
2023/02/20 09:09:33;;;;;;;29.30;14.40;;;;;;;4.75;71.68;99903.50;131287;1254;107530;-72
2023/02/20 09:12:40;;;;;;;20.50;10.90;;;;;;;4.66;71.84;99904.75;131390;1263;107466;-70
2023/02/20 09:15:46;;;;;;;42.90;20.70;;;;;;;4.60;72.34;99901.23;131415;1254;107356;-71
2023/02/20 09:18:54;;;;;;;26.40;14.20;;;;;;;4.59;72.32;99900.25;131253;1254;107580;-74
2023/02/20 09:22:00;;;;;;;18.60;9.60;;;;;;;4.64;72.61;99888.59;131277;1248;107274;-72
2023/02/20 09:25:06;;;;;;;13.20;7.60;;;;;;;4.70;72.77;99877.69;131214;1248;108136;-73
2023/02/20 09:28:12;;;;;;;12.80;7.50;;;;;;;4.69;72.80;99876.13;131271;1271;107244;-73
2023/02/20 09:31:17;;;;;;;13.50;8.80;;;;;;;4.67;73.02;99864.01;131260;1248;107564;-73
2023/02/20 09:34:23;;;;;;;13.30;9.10;;;;;;;4.66;73.18;99853.17;131422;1261;107552;-72
2023/02/20 09:37:28;;;;;;;10.90;6.30;;;;;;;4.62;73.38;99842.23;131404;1248;108753;-73
2023/02/20 09:40:34;;;;;;;12.00;6.30;;;;;;;4.54;73.60;99833.66;131213;1248;107362;-72
2023/02/20 09:43:51;;;;;;;10.70;6.30;;;;;;;4.48;73.63;99820.48;131404;1252;107635;-71
2023/02/20 09:47:02;;;;;;;11.20;5.20;;;;;;;4.41;73.81;99805.14;131367;1252;107277;-72
2023/02/20 09:50:14;;;;;;;13.00;5.70;;;;;;;4.39;73.79;99791.92;131409;1254;107513;-74
2023/02/20 09:53:24;;;;;;;18.20;7.20;;;;;;;4.39;73.85;99776.80;131235;1248;108661;-72
2023/02/20 09:56:34;;;;;;;10.40;5.20;;;;;;;4.41;74.37;99774.05;131293;1254;107441;-72
2023/02/20 09:59:43;;;;;;;8.80;5.40;;;;;;;4.40;74.17;99763.49;131184;1251;107482;-72
2023/02/20 10:02:57;;;;;;;9.90;5.70;;;;;;;4.40;74.36;99759.14;131189;1253;108704;-74
2023/02/20 10:06:13;;;;;;;15.50;8.90;;;;;;;4.38;74.63;99752.10;131205;1251;106775;-73
2023/02/20 10:09:19;;;;;;;12.00;7.40;;;;;;;4.36;74.61;99747.81;131220;1261;107437;-74
2023/02/20 10:12:30;;;;;;;15.00;9.20;;;;;;;4.30;74.88;99736.80;131178;1254;107489;-72
2023/02/20 10:15:44;;;;;;;18.50;13.40;;;;;;;4.24;75.22;99726.23;131166;1254;107465;-72
2023/02/20 10:18:58;;;;;;;10.40;6.90;;;;;;;4.20;75.18;99726.56;131221;1253;107650;-74
2023/02/20 10:22:11;;;;;;;14.00;8.10;;;;;;;4.18;75.71;99724.97;131345;1251;107490;-72
2023/02/20 10:25:22;;;;;;;20.50;14.90;;;;;;;4.22;75.83;99715.52;131413;1253;107566;-72
2023/02/20 10:28:28;;;;;;;23.10;18.20;;;;;;;4.25;75.75;99706.40;131395;1253;108592;-72
2023/02/20 10:31:40;;;;;;;14.30;10.00;;;;;;;4.28;76.08;99695.80;131185;1253;107492;-72
2023/02/20 10:34:55;;;;;;;30.30;22.60;;;;;;;4.27;75.94;99687.62;131201;1248;107420;-73
2023/02/20 10:38:07;;;;;;;20.00;13.20;;;;;;;4.26;76.25;99682.20;131186;1248;107449;-72
2023/02/20 10:41:19;;;;;;;19.10;13.30;;;;;;;4.26;76.46;99668.85;131396;1253;107616;-72
2023/02/20 10:44:28;;;;;;;29.90;19.80;;;;;;;4.24;76.98;99652.77;131444;1254;107370;-72
2023/02/20 10:47:42;;;;;;;19.20;12.80;;;;;;;4.26;76.80;99636.11;131392;1251;108598;-72
2023/02/20 10:50:55;;;;;;;16.00;11.10;;;;;;;4.37;76.77;99629.08;131338;1253;108622;-73
2023/02/20 10:54:07;;;;;;;39.20;27.10;;;;;;;4.46;77.00;99608.91;131364;1253;106368;-73
2023/02/20 10:57:19;;;;;;;34.40;23.80;;;;;;;4.51;77.02;99604.98;131366;1251;106419;-73
2023/02/20 11:00:32;;;;;;;22.80;16.20;;;;;;;4.54;76.99;99599.59;131227;1252;106475;-74
2023/02/20 11:03:47;;;;;;;17.40;10.20;;;;;;;4.55;77.17;99584.35;131265;1251;107368;-73
2023/02/20 11:06:57;;;;;;;18.60;11.20;;;;;;;4.57;77.77;99587.41;131179;1254;106243;-72
2023/02/20 11:10:03;;;;;;;22.80;16.30;;;;;;;4.50;77.34;99582.85;131395;1254;106634;-72
2023/02/20 11:13:15;;;;;;;11.00;7.00;;;;;;;4.49;77.20;99579.92;131279;1253;107337;-72
2023/02/20 11:16:27;;;;;;;12.80;8.70;;;;;;;4.52;77.81;99575.99;131271;1251;107329;-72
2023/02/20 11:19:40;;;;;;;14.80;10.20;;;;;;;4.55;77.79;99552.17;131219;1254;107547;-73
2023/02/20 11:22:48;;;;;;;18.90;12.70;;;;;;;4.57;78.01;99524.35;131198;1253;107559;-73
2023/02/20 11:25:53;;;;;;;16.90;11.30;;;;;;;4.56;78.07;99495.02;131257;1252;107504;-72
2023/02/20 11:29:05;;;;;;;16.90;10.40;;;;;;;4.55;78.06;99433.25;131182;1255;107374;-74
2023/02/20 11:32:23;;;;;;;30.40;16.90;;;;;;;4.59;78.61;99429.73;131266;1263;107248;-72
2023/02/20 11:35:32;;;;;;;57.20;32.30;;;;;;;4.59;78.79;99459.13;131424;1263;107327;-73
2023/02/20 11:38:38;;;;;;;19.70;11.60;;;;;;;4.63;78.46;99435.34;131242;1253;107511;-72
2023/02/20 11:41:43;;;;;;;18.70;12.40;;;;;;;4.74;78.78;99423.98;131240;1248;107637;-73
2023/02/20 11:45:13;;;;;;;13.60;8.90;;;;;;;4.86;78.80;99408.70;131335;1253;107864;-72
2023/02/20 11:48:20;;;;;;;13.10;8.60;;;;;;;4.95;79.16;99398.86;131281;1253;107513;-72
2023/02/20 11:51:35;;;;;;;22.30;15.10;;;;;;;5.01;78.90;99387.06;131351;1253;107514;-72
2023/02/20 11:54:41;;;;;;;19.40;12.00;;;;;;;5.04;78.83;99380.08;131379;1253;107468;-70
2023/02/20 11:57:47;;;;;;;21.30;14.70;;;;;;;5.09;78.81;99375.88;131264;1254;107487;-72
2023/02/20 12:00:55;;;;;;;22.50;15.00;;;;;;;5.17;79.12;99362.04;131414;1248;107221;-73
2023/02/20 12:04:01;;;;;;;43.90;30.30;;;;;;;5.25;79.23;99347.33;131226;1248;107248;-74
2023/02/20 12:07:25;;;;;;;74.50;47.80;;;;;;;5.34;79.19;99334.45;131151;1253;106057;-73
2023/02/20 12:10:44;;;;;;;18.80;11.50;;;;;;;5.44;79.44;99328.41;131175;1248;107035;-72
2023/02/20 12:13:52;;;;;;;14.90;10.80;;;;;;;5.50;79.30;99315.39;131241;1248;107380;-73
2023/02/20 12:17:16;;;;;;;15.00;9.60;;;;;;;5.52;79.87;99313.11;131432;1253;106787;-70
2023/02/20 12:20:24;;;;;;;13.40;9.40;;;;;;;5.56;79.58;99283.48;131365;1253;106288;-73
2023/02/20 12:23:39;;;;;;;17.70;10.40;;;;;;;5.63;79.47;99256.98;131394;1248;107464;-73
2023/02/20 12:26:53;;;;;;;17.50;11.90;;;;;;;5.71;79.49;99252.02;131324;1253;107611;-73
2023/02/20 12:30:06;;;;;;;16.80;10.80;;;;;;;5.76;79.82;99252.39;131452;1252;107389;-71
2023/02/20 12:33:32;;;;;;;16.80;11.00;;;;;;;5.81;79.35;99228.79;131297;1253;107466;-72
2023/02/20 12:36:40;;;;;;;19.30;14.80;;;;;;;5.84;79.63;99224.33;131251;1247;107273;-73
2023/02/20 12:39:53;;;;;;;20.80;15.50;;;;;;;5.83;79.70;99217.27;131268;1270;106429;-73
2023/02/20 12:43:12;;;;;;;15.90;10.50;;;;;;;5.85;79.81;99200.51;131189;1254;107522;-72
2023/02/20 12:46:21;;;;;;;16.50;11.10;;;;;;;5.89;79.79;99198.93;131202;1252;107511;-73
2023/02/20 12:49:53;;;;;;;18.50;11.70;;;;;;;5.96;80.30;99190.19;131214;1248;107407;-72
2023/02/20 12:53:16;;;;;;;17.10;11.50;;;;;;;6.03;79.94;99196.03;131362;1253;107359;-72
2023/02/20 12:56:38;;;;;;;13.50;9.10;;;;;;;6.12;80.25;99190.33;131167;1248;107359;-73
2023/02/20 12:59:51;;;;;;;17.00;11.50;;;;;;;6.17;80.01;99198.36;131199;1254;106534;-74
2023/02/20 13:03:05;;;;;;;16.00;10.60;;;;;;;6.24;80.08;99197.82;131167;1248;107335;-73
2023/02/20 13:06:17;;;;;;;13.70;8.90;;;;;;;6.30;80.16;99179.61;131246;1253;106552;-72
2023/02/20 13:09:25;;;;;;;13.30;8.90;;;;;;;6.34;80.02;99165.79;131211;1247;107289;-73
2023/02/20 13:12:30;;;;;;;14.50;10.00;;;;;;;6.43;80.20;99166.29;131174;1248;107424;-72
2023/02/20 13:15:42;;;;;;;24.20;15.90;;;;;;;6.52;79.88;99177.45;131375;1255;107215;-74
2023/02/20 13:18:54;;;;;;;46.80;28.80;;;;;;;6.62;79.87;99182.58;131391;1254;108626;-73
2023/02/20 13:22:01;;;;;;;47.70;27.80;;;;;;;6.67;79.90;99176.08;131370;1248;107423;-72
2023/02/20 13:25:40;;;;;;;59.30;32.60;;;;;;;6.68;79.79;99175.90;131451;1251;107514;-73
2023/02/20 13:28:46;;;;;;;40.20;24.00;;;;;;;6.67;79.76;99171.12;131474;1248;107370;-73
2023/02/20 13:31:53;;;;;;;35.20;20.20;;;;;;;6.61;79.97;99178.83;131369;1254;107270;-72
2023/02/20 13:38:33;;;;;;;25.40;15.70;;;;;;;6.57;80.00;99180.41;126968;1295;636874;-72
2023/02/20 13:42:01;;;;;;;22.60;13.10;;;;;;;6.57;80.01;99175.64;130002;1260;108627;-75
2023/02/20 13:45:37;;;;;;;49.10;27.50;;;;;;;6.59;79.89;99173.48;130590;1260;107519;-72
2023/02/20 13:48:44;;;;;;;38.30;22.90;;;;;;;6.60;79.96;99172.50;130619;1269;107513;-73
2023/02/20 13:51:50;;;;;;;47.00;30.20;;;;;;;6.60;79.84;99168.45;130597;1275;217654;-73
2023/02/20 13:54:56;;;;;;;57.10;33.90;;;;;;;6.58;80.00;99159.45;130854;1256;107274;-73
2023/02/20 13:58:11;;;;;;;28.40;16.60;;;;;;;6.56;79.97;99152.11;130859;1256;107171;-73
2023/02/20 14:01:17;;;;;;;13.90;8.80;;;;;;;6.55;80.01;99138.44;130851;1256;107513;-72
2023/02/20 14:04:23;;;;;;;55.30;29.60;;;;;;;6.58;79.92;99126.63;130854;1256;107556;-72
2023/02/20 14:07:37;;;;;;;40.30;23.10;;;;;;;6.63;79.68;99119.36;130925;1257;107461;-73
2023/02/20 14:10:46;;;;;;;40.90;22.70;;;;;;;6.70;79.84;99109.52;130847;1259;107675;-73
2023/02/20 14:13:53;;;;;;;34.30;19.30;;;;;;;6.74;79.66;99106.09;130844;1257;107498;-73
2023/02/20 14:17:07;;;;;;;26.90;16.00;;;;;;;6.75;79.54;99098.20;130883;1275;107713;-72
2023/02/20 14:20:23;;;;;;;42.80;22.80;;;;;;;6.77;79.58;99101.69;130962;1256;107068;-73
2023/02/20 14:23:32;;;;;;;21.50;12.00;;;;;;;6.75;79.58;99099.27;130851;1266;107837;-71
2023/02/20 14:26:38;;;;;;;17.40;10.30;;;;;;;6.75;79.49;99115.94;130897;1255;107398;-72
2023/02/20 14:29:43;;;;;;;26.00;15.00;;;;;;;6.79;79.62;99105.38;130856;1258;109371;-73
2023/02/20 14:32:51;;;;;;;37.10;19.30;;;;;;;6.87;79.38;99111.71;130809;1254;105755;-73
2023/02/20 14:36:08;;;;;;;33.40;17.50;;;;;;;6.92;79.38;99100.02;130870;1256;107383;-73
2023/02/20 14:39:38;;;;;;;96.20;48.90;;;;;;;6.96;79.27;99103.65;130842;1258;106987;-72
2023/02/20 14:42:46;;;;;;;51.60;29.40;;;;;;;6.98;78.73;99092.81;130915;1266;108033;-73